Time;durP1;ratioP1;P1;durP2;ratioP2;P2;SDS_P1;SDS_P2;PMS_P1;PMS_P2;Temp;Humidity;BMP_temperature;BMP_pressure;BME280_temperature;BME280_humidity;BME280_pressure;Samples;Min_cycle;Max_cycle;Signal;HPM_P1;HPM_P2
2021/03/01 00:02:26;;;;;;;25.45;10.73;;;3.20;99.90;;;2.75;63.66;102049.19;4971129;28;20126;-50
2021/03/01 00:04:52;;;;;;;26.42;12.05;;;3.30;99.90;;;2.66;64.08;102056.31;4970487;28;20038;-47
2021/03/01 00:07:18;;;;;;;43.28;20.88;;;3.30;99.90;;;2.49;65.08;102050.09;4971590;28;20319;-49
2021/03/01 00:09:44;;;;;;;27.85;15.07;;;3.20;99.90;;;2.42;65.77;102053.78;4970365;28;20391;-47
2021/03/01 00:12:10;;;;;;;31.45;16.00;;;3.10;99.90;;;2.33;65.75;102053.22;4966687;28;20045;-49
2021/03/01 00:14:36;;;;;;;33.72;15.30;;;3.00;99.90;;;2.35;66.27;102047.19;4966865;28;20035;-49
2021/03/01 00:17:02;;;;;;;29.63;14.50;;;2.90;99.90;;;2.27;66.64;102048.28;4970904;28;20038;-49
2021/03/01 00:19:28;;;;;;;24.15;12.13;;;2.90;99.90;;;2.21;67.04;102055.38;4971010;28;20073;-47
2021/03/01 00:21:54;;;;;;;16.17;7.38;;;2.80;99.90;;;2.11;67.12;102042.00;4970138;28;20483;-47
2021/03/01 00:24:20;;;;;;;22.73;10.30;;;2.80;99.90;;;2.08;67.15;102047.22;4970951;28;20027;-47
2021/03/01 00:26:46;;;;;;;23.15;11.27;;;2.80;99.90;;;2.17;67.02;102046.91;4970272;28;20046;-48
2021/03/01 00:29:12;;;;;;;19.02;10.23;;;2.70;99.90;;;2.10;67.18;102050.59;4971079;28;20533;-49
2021/03/01 00:31:38;;;;;;;25.85;12.57;;;2.70;99.90;;;2.07;67.52;102050.69;4970254;28;20494;-47
2021/03/01 00:34:04;;;;;;;26.83;12.52;;;2.70;99.90;;;2.12;67.49;102043.66;4970984;28;20487;-48
2021/03/01 00:36:30;;;;;;;19.42;10.52;;;2.70;99.90;;;2.05;67.86;102042.19;4967471;28;20475;-46
2021/03/01 00:38:55;;;;;;;19.08;9.63;;;2.70;99.90;;;1.97;68.38;102047.59;4971040;28;20097;-49
2021/03/01 00:41:21;;;;;;;20.30;9.20;;;2.60;99.90;;;1.91;68.46;102041.81;4969363;28;20486;-48
2021/03/01 00:43:47;;;;;;;12.00;6.45;;;2.60;99.90;;;1.87;68.98;102037.69;4970621;28;20522;-48
2021/03/01 00:46:13;;;;;;;11.73;7.10;;;2.50;99.90;;;1.95;67.93;102040.81;4969620;28;20407;-47
2021/03/01 00:48:39;;;;;;;14.52;6.68;;;2.50;99.90;;;1.94;68.12;102046.84;4970510;28;20487;-49
2021/03/01 00:51:05;;;;;;;12.13;6.05;;;2.50;99.90;;;1.97;67.66;102044.19;4969539;28;20484;-48
2021/03/01 00:53:31;;;;;;;13.75;6.40;;;2.50;99.90;;;1.93;67.70;102042.59;4970662;28;20170;-47
2021/03/01 00:55:57;;;;;;;13.85;7.20;;;2.50;99.90;;;1.91;67.80;102044.38;4950658;28;20495;-49
2021/03/01 00:58:23;;;;;;;17.90;7.53;;;2.50;99.90;;;1.91;68.12;102050.34;4951212;28;20019;-48
2021/03/01 01:00:51;;;;;;;17.70;8.27;;;2.50;99.90;;;1.88;68.25;102049.66;4954979;28;20037;-48
2021/03/01 01:03:19;;;;;;;11.93;5.93;;;2.50;99.90;;;1.83;68.04;102048.97;4970395;28;20403;-47
2021/03/01 01:05:46;;;;;;;12.27;6.68;;;2.40;99.90;;;1.80;68.56;102054.19;4969473;28;20047;-46
2021/03/01 01:08:12;;;;;;;15.00;7.80;;;2.40;99.90;;;1.75;68.90;102053.50;4970434;28;20109;-48
2021/03/01 01:10:38;;;;;;;18.83;7.38;;;2.40;99.90;;;1.71;69.00;102049.34;4949050;29;20414;-48
2021/03/01 01:13:05;;;;;;;17.95;8.68;;;2.30;99.90;;;1.72;69.00;102044.16;4968030;28;20062;-51
2021/03/01 01:15:32;;;;;;;14.90;7.20;;;2.30;99.90;;;1.67;69.21;102049.44;4969373;28;20030;-50
2021/03/01 01:17:58;;;;;;;14.95;7.20;;;2.30;99.90;;;1.65;69.40;102043.50;4969234;28;20224;-50
2021/03/01 01:20:24;;;;;;;28.77;11.27;;;2.30;99.90;;;1.63;69.29;102040.16;4969268;28;20117;-48
2021/03/01 01:22:50;;;;;;;13.68;6.38;;;2.20;99.90;;;1.59;69.51;102043.69;4969073;28;20053;-47
2021/03/01 01:25:17;;;;;;;15.63;6.10;;;2.20;99.90;;;1.56;69.35;102048.09;4969883;28;20038;-49
2021/03/01 01:27:43;;;;;;;15.48;7.47;;;2.20;99.90;;;1.58;69.19;102049.72;4968900;28;20097;-52
2021/03/01 01:30:13;;;;;;;15.13;7.32;;;2.10;99.90;;;1.56;69.33;102042.97;4969869;28;20065;-47
2021/03/01 01:32:39;;;;;;;14.80;7.20;;;2.20;99.90;;;1.57;69.54;102037.78;4969162;28;20034;-46
2021/03/01 01:35:08;;;;;;;16.05;7.97;;;2.20;99.90;;;1.52;69.77;102038.81;4969005;28;20505;-48
2021/03/01 01:37:34;;;;;;;18.33;7.72;;;2.20;99.90;;;1.56;70.00;102027.53;4968896;28;20041;-49
2021/03/01 01:40:02;;;;;;;16.17;6.65;;;2.10;99.90;;;1.52;69.75;102034.50;4969679;28;20046;-48
2021/03/01 01:42:28;;;;;;;15.73;6.43;;;2.10;99.90;;;1.53;70.23;102038.75;4968731;28;20030;-50
2021/03/01 01:44:54;;;;;;;13.55;6.43;;;2.10;99.90;;;1.48;70.32;102032.91;4970433;28;20046;-47
2021/03/01 01:47:20;;;;;;;10.43;5.70;;;2.10;99.90;;;1.46;70.54;102039.00;4969122;28;20580;-50
2021/03/01 01:49:46;;;;;;;12.30;5.40;;;2.10;99.90;;;1.40;70.19;102034.91;4969903;28;20054;-50
2021/03/01 01:52:12;;;;;;;12.23;6.43;;;2.00;99.90;;;1.45;70.08;102032.19;4968833;28;20062;-48
2021/03/01 01:54:38;;;;;;;10.30;5.97;;;2.10;99.90;;;1.44;69.97;102025.34;4966011;28;20047;-48
2021/03/01 01:57:04;;;;;;;11.20;5.88;;;2.10;99.90;;;1.40;70.46;102021.22;4969678;28;20046;-50
2021/03/01 01:59:31;;;;;;;6.72;3.67;;;2.00;99.90;;;1.49;69.91;102020.91;4968533;28;20094;-51
2021/03/01 02:01:57;;;;;;;7.20;3.92;;;2.10;99.90;;;1.52;69.64;102020.81;4952065;28;20108;-54
2021/03/01 02:04:30;;;;;;;12.40;5.10;;;2.10;99.90;;;1.49;69.99;102016.63;4968364;28;20034;-50
2021/03/01 02:07:20;;;;;;;7.18;3.85;;;2.10;99.90;;;1.49;69.83;102019.19;4969610;28;20042;-47
2021/03/01 02:10:18;;;;;;;7.45;4.38;;;2.10;99.90;;;1.46;70.89;102018.44;4968985;28;20045;-51
2021/03/01 02:13:14;;;;;;;9.63;4.30;;;2.10;99.90;;;1.40;71.50;102018.66;4951371;28;20055;-52
2021/03/01 02:16:18;;;;;;;7.88;3.70;;;2.00;99.90;;;1.43;70.63;102016.81;4950522;29;20368;-50
2021/03/01 02:18:45;;;;;;;11.80;4.75;;;2.00;99.90;;;1.47;69.10;102020.13;4958252;28;20045;-48
2021/03/01 02:21:13;;;;;;;7.40;3.70;;;2.10;99.90;;;1.35;70.21;102017.97;4952366;28;20117;-47
2021/03/01 02:23:40;;;;;;;9.25;3.60;;;2.00;99.90;;;1.32;70.10;102013.75;4968381;28;20063;-52
2021/03/01 02:26:17;;;;;;;5.25;3.42;;;1.90;99.90;;;1.39;71.60;102010.13;4970190;28;20498;-51
2021/03/01 02:28:50;;;;;;;12.77;4.32;;;1.90;99.90;;;1.33;70.09;102015.44;4954706;28;20042;-49
2021/03/01 02:31:17;;;;;;;8.60;4.45;;;1.90;99.90;;;1.24;70.87;102010.59;4955595;28;20031;-48
2021/03/01 02:33:53;;;;;;;7.70;4.30;;;1.90;99.90;;;1.14;72.17;102017.72;4954927;28;20041;-50
2021/03/01 02:36:24;;;;;;;9.35;4.72;;;1.80;99.90;;;1.14;71.11;102015.16;4973237;28;20045;-51
2021/03/01 02:38:53;;;;;;;8.63;6.45;;;1.70;99.90;;;1.07;71.72;102017.97;4971981;28;20049;-47
2021/03/01 02:43:55;;;;;;;8.48;4.30;;;1.70;99.90;;;1.11;71.36;102016.97;4800185;23;20055;-53
2021/03/01 02:46:22;;;;;;;10.52;6.65;;;1.70;99.90;;;1.12;71.01;102005.81;4972872;28;20046;-51
2021/03/01 02:48:49;;;;;;;9.05;4.72;;;1.70;99.90;;;0.99;71.15;102006.19;4955163;28;20073;-48
2021/03/01 02:51:16;;;;;;;9.75;4.05;;;1.70;99.90;;;0.99;71.55;102008.75;4972741;28;20078;-52
2021/03/01 02:53:43;;;;;;;9.00;5.50;;;1.60;99.90;;;0.98;71.34;102001.94;4955299;28;20043;-51
2021/03/01 02:56:10;;;;;;;8.65;5.13;;;1.60;99.90;;;0.95;71.37;102003.75;4972570;28;20034;-51
2021/03/01 02:58:39;;;;;;;11.35;5.65;;;1.60;99.90;;;0.93;71.75;102001.25;4972160;28;20076;-49
2021/03/01 03:01:06;;;;;;;11.18;3.65;;;1.60;99.90;;;0.87;71.93;101990.34;4955657;28;20058;-50
2021/03/01 03:03:33;;;;;;;11.48;4.28;;;1.50;99.90;;;0.98;71.22;101999.38;4972481;28;20065;-49
2021/03/01 03:06:01;;;;;;;8.93;4.32;;;1.50;99.90;;;1.02;70.65;101992.44;4972703;28;20030;-48
2021/03/01 03:08:31;;;;;;;7.18;3.95;;;1.60;99.90;;;0.95;71.64;101991.75;4954971;28;20042;-49
2021/03/01 03:10:59;;;;;;;17.05;5.82;;;1.60;99.90;;;0.93;71.82;101995.28;4954716;28;20043;-50
2021/03/01 03:13:26;;;;;;;14.10;5.90;;;1.50;99.90;;;0.94;71.44;101984.97;4955041;28;20137;-50
2021/03/01 03:15:57;;;;;;;13.43;6.00;;;1.60;99.90;;;0.88;71.71;101987.72;4972490;28;20114;-47
2021/03/01 03:18:24;;;;;;;11.93;5.25;;;1.50;99.90;;;0.79;72.27;101995.69;4955148;28;20031;-51
2021/03/01 03:20:51;;;;;;;16.77;6.60;;;1.40;99.90;;;0.75;72.64;101991.53;4972494;28;20030;-53
2021/03/01 03:23:18;;;;;;;7.45;3.75;;;1.40;99.90;;;0.75;72.19;101991.53;4972447;28;20034;-49
2021/03/01 03:25:44;;;;;;;13.90;5.80;;;1.30;99.90;;;0.75;72.42;101991.53;4971891;28;20054;-52
2021/03/01 03:28:10;;;;;;;11.10;5.32;;;1.40;99.90;;;0.69;72.78;101998.56;4972133;28;20500;-48
2021/03/01 03:30:36;;;;;;;10.25;5.13;;;1.30;99.90;;;0.71;72.50;102000.19;4971839;28;20035;-52
2021/03/01 03:33:03;;;;;;;9.70;4.57;;;1.30;99.90;;;0.64;72.98;102007.22;4972184;28;20058;-48
2021/03/01 03:35:30;;;;;;;7.63;4.40;;;1.30;99.90;;;0.60;73.18;102007.34;4972024;28;20117;-50
2021/03/01 03:38:13;;;;;;;8.85;4.68;;;1.20;99.90;;;0.57;73.55;102002.31;4971169;28;20060;-47
2021/03/01 03:40:44;;;;;;;7.78;4.32;;;1.20;99.90;;;0.55;72.93;101997.22;4971634;28;20043;-49
2021/03/01 03:43:13;;;;;;;10.13;4.10;;;1.20;99.90;;;0.54;72.91;101999.84;4971551;28;20046;-48
2021/03/01 03:45:41;;;;;;;8.38;4.57;;;1.10;99.90;;;0.56;72.95;101993.78;4954330;28;20030;-50
2021/03/01 03:48:07;;;;;;;8.95;4.20;;;1.10;99.90;;;0.58;73.23;101998.88;4971850;28;20038;-50
2021/03/01 03:50:35;;;;;;;10.02;4.13;;;1.20;99.90;;;0.55;73.00;101998.94;4971244;28;20045;-50
2021/03/01 03:53:14;;;;;;;10.80;5.50;;;1.20;99.90;;;0.52;73.10;101996.47;4971423;28;20085;-48
2021/03/01 03:55:45;;;;;;;6.57;3.45;;;1.10;99.90;;;0.50;73.36;101993.94;4971570;28;20038;-50
2021/03/01 03:58:14;;;;;;;6.88;3.00;;;1.10;99.90;;;0.54;73.16;101992.13;4971738;28;20054;-49
2021/03/01 04:00:41;;;;;;;8.65;4.07;;;1.10;99.90;;;0.55;72.91;101993.81;4954109;28;20039;-51
2021/03/01 04:03:12;;;;;;;9.52;4.25;;;1.10;99.90;;;0.54;73.16;101987.00;4953620;28;20117;-48
2021/03/01 04:05:43;;;;;;;8.10;3.80;;;1.20;99.90;;;0.53;72.89;101990.47;4954360;28;20173;-48
2021/03/01 04:08:13;;;;;;;7.90;3.70;;;1.10;99.90;;;0.52;72.69;101979.34;4971181;28;20113;-48
2021/03/01 04:10:44;;;;;;;6.65;3.75;;;1.10;99.90;;;0.50;72.50;101990.53;4954061;28;20042;-50
2021/03/01 04:13:12;;;;;;;10.10;4.70;;;1.20;99.90;;;0.44;72.76;101978.75;4971136;28;20093;-48
2021/03/01 04:15:46;;;;;;;9.68;4.13;;;1.10;99.90;;;0.41;72.98;101985.69;4953818;28;20046;-47
2021/03/01 04:18:23;;;;;;;8.40;4.30;;;1.00;99.90;;;0.40;73.18;101984.00;4954322;28;20039;-47
2021/03/01 04:20:50;;;;;;;8.50;4.18;;;1.00;99.90;;;0.41;73.37;101985.69;4971425;28;20049;-47
2021/03/01 04:23:17;;;;;;;10.38;4.03;;;1.00;99.90;;;0.48;72.90;101987.19;4953667;28;20062;-47
2021/03/01 04:25:48;;;;;;;7.18;3.63;;;1.00;99.90;;;0.46;73.58;101978.72;4971258;28;20089;-48
2021/03/01 04:28:15;;;;;;;8.95;3.33;;;1.00;99.90;;;0.84;71.66;101982.72;4970716;28;20532;-48
2021/03/01 04:30:43;;;;;;;6.40;2.58;;;1.20;99.90;;;1.03;70.54;101985.56;4953396;28;20039;-49
2021/03/01 04:33:10;;;;;;;5.55;2.90;;;1.40;99.90;;;1.24;69.54;101984.91;4953648;28;20046;-50
2021/03/01 04:35:37;;;;;;;7.30;3.95;;;1.70;99.90;;;1.39;68.95;101988.75;4953477;28;20037;-52
2021/03/01 04:38:03;;;;;;;9.63;2.95;;;1.90;99.90;;;1.62;67.86;101983.69;4953275;28;20051;-49
2021/03/01 04:40:29;;;;;;;5.38;3.15;;;2.00;99.90;;;1.49;68.48;101980.66;4952974;28;20506;-49
2021/03/01 04:42:55;;;;;;;6.18;3.85;;;2.00;99.90;;;1.65;67.85;101986.16;4970364;28;20065;-48
2021/03/01 04:45:22;;;;;;;7.25;2.95;;;2.10;99.90;;;1.66;68.11;101978.38;4953396;28;20031;-51
2021/03/01 04:47:50;;;;;;;8.27;3.92;;;2.10;99.90;;;1.48;68.79;101983.28;4953074;28;20509;-47
2021/03/01 04:50:17;;;;;;;7.47;3.13;;;2.10;99.90;;;1.19;69.73;101984.22;4952138;28;20080;-49
2021/03/01 04:52:45;;;;;;;6.38;3.22;;;1.90;99.90;;;0.97;70.28;101982.28;4952830;28;20089;-47
2021/03/01 04:55:13;;;;;;;7.78;3.20;;;1.70;99.90;;;0.90;70.90;101980.00;4953181;28;20107;-47
2021/03/01 04:57:40;;;;;;;12.32;4.25;;;1.50;99.90;;;0.73;71.43;101987.34;4952977;28;20502;-51
2021/03/01 05:00:11;;;;;;;5.43;3.25;;;1.40;99.90;;;0.72;71.83;101978.78;4970172;28;20042;-53
2021/03/01 05:02:39;;;;;;;8.05;3.50;;;1.30;99.90;;;0.62;71.86;101979.94;4970264;28;20031;-48
2021/03/01 05:05:07;;;;;;;7.70;3.65;;;1.30;99.90;;;0.68;71.58;101979.75;4975104;23;20069;-50
2021/03/01 05:07:35;;;;;;;6.13;2.45;;;1.30;99.90;;;0.68;71.14;101969.50;4989233;28;20105;-47
2021/03/01 05:10:04;;;;;;;8.15;3.78;;;1.30;99.90;;;0.64;71.60;101973.03;4989561;28;20398;-48
2021/03/01 05:12:30;;;;;;;7.60;3.40;;;1.30;99.90;;;0.60;72.00;101968.88;4989350;28;20406;-48
2021/03/01 05:14:56;;;;;;;4.63;2.78;;;1.20;99.90;;;0.57;71.46;101969.81;4989339;28;20051;-49
2021/03/01 05:17:22;;;;;;;5.03;3.40;;;1.30;99.90;;;0.62;71.87;101967.13;4989382;28;20479;-52
2021/03/01 05:19:48;;;;;;;8.88;2.75;;;1.20;99.90;;;0.58;71.70;101965.53;4989486;28;20034;-50
2021/03/01 05:22:13;;;;;;;7.47;2.90;;;1.20;99.90;;;0.64;70.53;101967.91;4989035;28;20072;-49
2021/03/01 05:24:39;;;;;;;9.18;3.40;;;1.20;99.90;;;0.62;70.67;101960.25;4989206;28;20087;-51
2021/03/01 05:27:05;;;;;;;6.50;3.38;;;1.20;99.90;;;0.55;70.96;101957.91;4989092;28;20053;-51
2021/03/01 05:29:33;;;;;;;5.80;3.30;;;1.10;99.90;;;0.48;71.58;101961.53;4989100;28;20150;-49
2021/03/01 05:31:58;;;;;;;6.13;3.20;;;1.20;99.90;;;0.43;72.36;101966.81;4972042;28;20415;-47
2021/03/01 05:34:24;;;;;;;9.15;2.97;;;1.10;99.90;;;0.53;71.86;101975.06;4989030;28;20042;-48
2021/03/01 05:36:50;;;;;;;5.70;2.78;;;1.10;99.90;;;0.54;71.04;101966.50;4988880;28;20038;-50
2021/03/01 05:39:16;;;;;;;6.35;3.08;;;1.10;99.90;;;0.53;71.38;101963.09;4988933;28;20374;-48
2021/03/01 05:41:45;;;;;;;6.32;3.53;;;1.10;99.90;;;0.42;72.22;101961.75;4989188;28;20038;-50
2021/03/01 05:44:12;;;;;;;21.25;10.05;;;1.00;99.90;;;0.37;72.46;101969.56;4971716;28;20371;-48
2021/03/01 05:46:42;;;;;;;6.90;3.13;;;1.00;99.90;;;0.45;72.14;101964.22;4989154;28;20034;-48
2021/03/01 05:49:09;;;;;;;6.35;3.28;;;1.00;99.90;;;0.54;70.98;101969.06;4971608;28;20185;-52
2021/03/01 05:51:38;;;;;;;21.05;9.88;;;1.10;99.90;;;0.84;70.01;101972.47;4989253;28;20053;-48
2021/03/01 05:54:06;;;;;;;10.50;4.18;;;1.30;99.90;;;1.24;69.75;101967.78;4971530;28;20034;-54
2021/03/01 05:56:33;;;;;;;6.55;3.80;;;1.50;99.90;;;1.57;68.26;101968.41;4969575;28;20109;-50
2021/03/01 05:59:00;;;;;;;7.85;3.67;;;1.90;99.90;;;1.52;67.70;101965.16;4969550;28;20031;-52
2021/03/01 06:01:26;;;;;;;8.68;3.58;;;2.00;99.90;;;1.88;66.38;101967.41;4972579;28;20110;-48
2021/03/01 06:03:52;;;;;;;10.27;4.57;;;2.30;99.90;;;1.74;66.70;101967.84;4975470;28;20476;-48
2021/03/01 06:06:18;;;;;;;13.40;4.22;;;2.30;99.90;;;1.51;68.14;101976.31;4975779;28;20042;-49
2021/03/01 06:08:44;;;;;;;7.35;2.70;;;2.20;99.90;;;1.92;66.75;101979.22;4976100;28;20031;-49
2021/03/01 06:11:10;;;;;;;7.25;3.17;;;2.30;99.90;;;2.86;65.10;101983.50;4975732;28;20031;-49
2021/03/01 06:13:36;;;;;;;11.70;3.15;;;2.90;99.90;;;2.97;63.93;101988.25;4975643;28;20078;-48
2021/03/01 06:16:05;;;;;;;12.27;3.92;;;3.40;99.90;;;2.52;65.01;101983.94;4975695;28;20042;-49
2021/03/01 06:18:32;;;;;;;8.45;4.10;;;3.20;99.90;;;2.33;65.52;101996.66;4958386;28;20031;-48
2021/03/01 06:21:18;;;;;;;8.90;3.63;;;3.00;99.90;;;2.30;65.54;101986.47;4975520;28;20050;-49
2021/03/01 06:23:45;;;;;;;11.77;4.00;;;3.00;99.90;;;2.25;65.94;101996.06;4975773;28;20050;-49
2021/03/01 06:26:33;;;;;;;7.80;3.15;;;2.90;99.90;;;2.26;65.92;101995.19;4975719;28;20097;-49
2021/03/01 06:29:04;;;;;;;8.38;4.35;;;2.90;99.90;;;2.23;66.47;102004.72;4975716;28;20105;-48
2021/03/01 06:31:44;;;;;;;12.35;7.45;;;2.80;99.90;;;2.21;65.99;102001.38;4975510;28;20093;-49
2021/03/01 06:34:36;;;;;;;11.27;6.32;;;2.80;99.90;;;2.38;65.79;102004.16;4975776;28;20031;-46
2021/03/01 06:37:15;;;;;;;14.23;6.90;;;3.00;99.90;;;2.42;65.75;102004.91;4971144;28;20062;-49
2021/03/01 06:39:47;;;;;;;8.38;4.78;;;3.00;99.90;;;2.46;64.76;102012.44;4975430;28;20457;-51
2021/03/01 06:42:16;;;;;;;14.50;5.05;;;3.20;99.90;;;2.77;63.68;102021.66;4986316;28;20031;-52
2021/03/01 06:45:02;;;;;;;13.10;6.03;;;3.50;99.90;;;2.95;62.00;102015.78;4982093;28;20467;-47
2021/03/01 06:47:52;;;;;;;10.00;4.78;;;3.60;99.50;;;3.26;61.18;102013.72;4965354;28;20590;-50
2021/03/01 06:50:33;;;;;;;9.13;4.38;;;3.70;99.40;;;3.51;61.11;102016.16;4983109;28;20038;-47
2021/03/01 06:53:15;;;;;;;11.07;4.38;;;3.90;98.90;;;3.68;60.88;102012.91;4973642;28;20129;-46
2021/03/01 06:56:05;;;;;;;12.30;4.22;;;4.10;98.50;;;3.80;62.00;102012.38;4993380;28;20034;-47
2021/03/01 06:58:43;;;;;;;10.52;3.45;;;4.30;98.50;;;3.97;60.38;102014.25;4994925;28;20038;-48
2021/03/01 07:01:24;;;;;;;9.73;3.15;;;4.50;97.80;;;4.22;59.69;102022.63;4990349;28;20133;-50
2021/03/01 07:03:51;;;;;;;11.90;3.30;;;4.60;97.50;;;4.43;59.15;102022.59;4994555;28;20046;-48
2021/03/01 07:06:19;;;;;;;5.93;3.10;;;4.90;96.40;;;4.57;58.83;102015.09;4992898;28;20038;-51
2021/03/01 07:08:53;;;;;;;12.05;4.85;;;5.00;95.10;;;4.79;58.05;102015.78;4994585;28;20058;-51
2021/03/01 07:11:35;;;;;;;14.90;4.60;;;5.20;95.20;;;4.98;58.12;102026.13;4993105;28;20042;-49
2021/03/01 07:14:15;;;;;;;10.40;4.60;;;5.40;94.60;;;5.12;58.36;102025.47;4990980;28;20042;-48
2021/03/01 07:16:46;;;;;;;13.73;4.47;;;5.60;94.60;;;5.32;57.41;102020.19;4980800;28;20042;-48
2021/03/01 07:19:24;;;;;;;10.10;4.40;;;5.80;94.00;;;5.56;56.49;102016.44;4991131;28;20046;-48
2021/03/01 07:21:56;;;;;;;7.93;3.88;;;5.90;92.80;;;5.81;56.26;102017.81;4991725;28;20049;-52
2021/03/01 07:24:25;;;;;;;18.23;5.60;;;6.20;92.60;;;6.01;56.13;102022.03;4982675;28;20767;-47
2021/03/01 07:26:54;;;;;;;21.92;5.15;;;6.40;92.20;;;6.17;55.73;102018.56;4986032;28;20034;-47
2021/03/01 07:29:21;;;;;;;8.48;3.85;;;6.60;91.30;;;6.31;55.58;102016.09;4989019;28;20135;-46
2021/03/01 07:32:04;;;;;;;8.05;4.10;;;6.80;90.50;;;6.47;53.57;102012.72;4991112;28;20423;-51
2021/03/01 07:34:30;;;;;;;12.13;5.75;;;6.90;88.60;;;6.66;54.13;102010.81;4991352;28;20058;-48
2021/03/01 07:36:59;;;;;;;7.20;4.00;;;7.10;87.70;;;6.79;53.60;102011.84;4991681;28;20035;-47
2021/03/01 07:39:27;;;;;;;9.23;3.22;;;7.20;86.10;;;7.00;53.06;102012.44;4991019;28;20443;-49
2021/03/01 07:41:54;;;;;;;13.30;4.10;;;7.40;85.00;;;7.26;52.71;102011.00;4990862;28;20138;-47
2021/03/01 07:44:29;;;;;;;8.02;3.03;;;7.60;83.90;;;7.52;51.79;102010.38;4991007;28;20030;-48
2021/03/01 07:46:58;;;;;;;6.30;3.57;;;7.90;82.80;;;7.76;52.18;102009.88;4991376;28;20438;-48
2021/03/01 07:49:45;;;;;;;7.75;3.08;;;8.10;82.50;;;7.84;50.34;102007.66;4991000;28;20761;-49
2021/03/01 07:52:20;;;;;;;5.22;2.30;;;8.20;79.50;;;8.06;49.91;102005.47;4991186;28;20038;-49
2021/03/01 07:54:55;;;;;;;6.30;2.28;;;8.40;77.80;;;8.05;48.74;102002.97;4991053;28;20038;-51
2021/03/01 07:57:27;;;;;;;6.72;2.83;;;8.60;75.10;;;8.32;49.67;102002.19;4990772;28;20122;-49
2021/03/01 07:59:54;;;;;;;8.52;2.75;;;8.70;74.50;;;8.59;48.82;101998.81;4990979;28;20030;-49
2021/03/01 08:02:32;;;;;;;5.75;2.42;;;9.00;73.30;;;8.82;47.67;102000.84;4990980;28;20104;-46
2021/03/01 08:05:09;;;;;;;3.97;2.22;;;9.10;71.90;;;9.06;47.52;102002.81;4990368;28;20499;-45
2021/03/01 08:07:40;;;;;;;7.18;3.10;;;9.40;70.70;;;9.21;46.69;102000.06;4990868;28;20077;-46
2021/03/01 08:10:16;;;;;;;8.77;3.20;;;9.60;69.70;;;9.40;46.40;101999.72;4990633;28;20370;-49
2021/03/01 08:12:42;;;;;;;5.03;2.42;;;9.70;70.20;;;9.56;46.92;102000.38;4990513;28;20047;-47
2021/03/01 08:15:09;;;;;;;4.93;2.45;;;9.90;69.10;;;9.68;46.57;101998.75;4990302;28;20038;-47
2021/03/01 08:17:41;;;;;;;7.25;2.08;;;10.10;68.00;;;9.81;44.53;101991.78;4990415;28;20117;-46
2021/03/01 08:20:13;;;;;;;10.13;2.47;;;10.20;65.30;;;9.86;44.69;102000.13;4990419;28;20505;-50
2021/03/01 08:23:07;;;;;;;5.15;2.50;;;10.30;64.30;;;9.93;41.78;102000.53;4990575;28;20168;-50
2021/03/01 08:28:22;;;;;;;15.07;2.38;;;10.50;60.70;;;10.18;41.88;102000.53;4990419;28;20164;-50
2021/03/01 08:30:56;;;;;;;12.77;2.50;;;10.60;59.80;;;10.40;41.84;102002.53;4990232;28;20137;-51
2021/03/01 08:33:28;;;;;;;4.07;1.58;;;10.80;59.60;;;10.72;41.23;102005.50;4990235;28;20435;-62
2021/03/01 08:36:14;;;;;;;3.55;1.90;;;11.00;59.50;;;10.82;38.27;102003.91;4990159;28;20413;-54
2021/03/01 08:38:43;;;;;;;8.75;2.47;;;11.20;57.50;;;10.72;40.35;102004.66;4979368;28;20030;-59
2021/03/01 08:41:14;;;;;;;6.20;1.65;;;11.20;57.60;;;10.84;40.56;102009.84;4988853;28;20084;-46
2021/03/01 08:43:52;;;;;;;3.15;1.42;;;11.30;57.20;;;11.09;39.24;102011.53;4988875;28;20034;-52
2021/03/01 08:46:21;;;;;;;3.20;1.60;;;11.40;56.80;;;11.31;39.21;102013.44;4989722;28;20034;-55
2021/03/01 08:48:59;;;;;;;3.38;1.20;;;11.60;55.70;;;11.45;37.62;102013.22;4989873;28;20104;-57
2021/03/01 08:51:25;;;;;;;3.45;1.50;;;11.70;55.50;;;11.42;38.73;102010.00;4989767;28;20046;-52
2021/03/01 08:53:52;;;;;;;3.53;1.20;;;11.90;54.10;;;11.39;38.28;102010.25;4990125;28;20034;-54
2021/03/01 08:56:21;;;;;;;4.03;1.63;;;11.90;53.00;;;11.42;38.22;102013.47;4989963;28;20137;-57
2021/03/01 08:58:46;;;;;;;4.15;1.33;;;11.90;53.00;;;11.44;37.96;102011.56;4989551;28;20039;-55
2021/03/01 09:01:13;;;;;;;6.13;1.25;;;12.00;52.50;;;11.81;37.77;102014.13;4989959;28;20046;-54
2021/03/01 09:03:41;;;;;;;2.78;1.38;;;12.10;53.20;;;12.04;37.40;102010.59;4989579;28;20046;-53
2021/03/01 09:06:18;;;;;;;2.45;0.93;;;12.40;52.60;;;12.01;36.07;102013.44;4989791;28;20057;-53
2021/03/01 09:08:55;;;;;;;2.17;0.90;;;12.50;51.20;;;12.14;35.66;102010.72;4989791;28;20031;-52
2021/03/01 09:11:30;;;;;;;4.80;1.40;;;12.60;51.30;;;12.27;36.71;102024.50;4989515;28;20081;-49
2021/03/01 09:14:02;;;;;;;4.03;1.17;;;12.70;52.00;;;12.43;34.85;102013.69;4989389;28;20576;-48
2021/03/01 09:16:34;;;;;;;7.78;1.65;;;12.80;51.00;;;12.26;36.12;102015.84;4989653;28;20105;-51
2021/03/01 09:19:12;;;;;;;5.50;1.40;;;12.70;51.60;;;12.38;35.74;102018.44;4989467;28;20038;-53
2021/03/01 09:21:41;;;;;;;3.75;1.02;;;12.80;50.70;;;12.36;36.18;102017.72;4989432;28;20045;-48
2021/03/01 09:24:12;;;;;;;2.40;0.93;;;12.80;50.40;;;12.58;35.12;102017.72;4989218;28;20121;-50
2021/03/01 09:26:44;;;;;;;4.22;1.63;;;12.90;50.40;;;12.75;36.11;102021.66;4989687;28;20070;-48
2021/03/01 09:29:14;;;;;;;2.60;1.05;;;13.10;50.60;;;12.79;35.58;102017.81;4989226;28;20116;-52
2021/03/01 09:31:44;;;;;;;4.40;1.10;;;13.20;50.10;;;12.90;35.38;102025.66;4989511;28;20038;-47
2021/03/01 09:34:13;;;;;;;4.03;1.15;;;13.30;49.70;;;13.08;35.41;102023.34;4989083;28;20030;-50
2021/03/01 09:36:41;;;;;;;4.70;1.17;;;13.40;50.10;;;13.37;35.06;102015.78;4988603;28;20038;-52
2021/03/01 09:39:08;;;;;;;8.27;1.33;;;13.70;49.50;;;13.54;34.75;102010.84;4989308;28;20135;-52
2021/03/01 09:41:36;;;;;;;18.48;3.13;;;13.80;49.50;;;13.95;34.39;102017.03;4989460;28;20503;-53
2021/03/01 09:44:04;;;;;;;9.13;0.98;;;14.20;49.50;;;14.02;32.46;102005.09;4989344;28;20037;-49
2021/03/01 09:46:31;;;;;;;17.92;1.50;;;14.30;47.30;;;14.12;32.92;102008.59;4988953;28;20643;-51
2021/03/01 09:49:06;;;;;;;5.38;1.08;;;14.40;46.30;;;14.25;31.57;102003.94;4987315;28;20034;-48
2021/03/01 09:51:34;;;;;;;8.65;0.90;;;14.60;46.10;;;14.51;31.70;102006.16;4989186;28;20150;-51
2021/03/01 09:54:08;;;;;;;10.88;1.40;;;14.80;45.90;;;14.55;30.70;102004.94;4988884;28;20146;-53
2021/03/01 09:56:54;;;;;;;2.80;1.00;;;14.90;44.80;;;14.60;29.70;102005.38;4987653;28;20495;-50
2021/03/01 09:59:49;;;;;;;6.32;1.02;;;15.00;43.50;;;14.76;28.76;101997.81;4989263;28;20110;-51
2021/03/01 10:02:24;;;;;;;6.38;0.77;;;15.10;43.20;;;14.71;29.96;101994.75;4975242;28;20509;-49
2021/03/01 10:05:09;;;;;;;5.63;0.80;;;15.10;44.10;;;14.88;30.62;101991.47;4988728;28;20461;-50
2021/03/01 10:07:35;;;;;;;5.90;1.00;;;15.20;43.50;;;15.02;30.49;101992.06;4988660;28;20061;-53
2021/03/01 10:10:14;;;;;;;7.70;1.00;;;15.30;43.50;;;15.19;28.98;101983.47;4988728;28;20350;-52
2021/03/01 10:12:47;;;;;;;24.60;2.92;;;15.50;43.40;;;15.28;29.19;101985.28;4988945;28;20042;-52
2021/03/01 10:15:14;;;;;;;22.70;2.67;;;15.60;43.80;;;15.33;30.16;101980.44;4988912;28;20122;-52
2021/03/01 10:17:40;;;;;;;6.25;1.55;;;15.70;43.60;;;15.27;29.94;101984.47;4987083;28;20109;-50
2021/03/01 10:20:11;;;;;;;1.95;1.10;;;15.70;42.90;;;15.47;29.68;101981.84;4970120;28;20034;-48
2021/03/01 10:23:04;;;;;;;10.70;0.95;;;15.80;43.00;;;15.48;27.96;101976.44;4988333;28;20060;-50
2021/03/01 10:25:41;;;;;;;4.82;0.80;;;15.90;42.20;;;15.56;28.81;101973.13;4985596;28;20035;-51
2021/03/01 10:28:33;;;;;;;13.18;1.00;;;15.90;42.40;;;15.70;27.95;101982.38;4988454;28;20050;-49
2021/03/01 10:31:16;;;;;;;5.68;0.90;;;16.00;41.50;;;15.84;27.35;101984.56;4989023;28;20409;-48
2021/03/01 10:34:02;;;;;;;1.92;0.40;;;16.20;41.00;;;15.62;26.32;101974.34;4988584;28;20537;-48
2021/03/01 10:36:34;;;;;;;3.20;0.60;;;16.10;39.90;;;15.79;27.71;101981.53;4988551;28;20038;-46
2021/03/01 10:39:09;;;;;;;2.63;0.60;;;16.10;40.00;;;15.95;27.55;101978.31;4988400;28;20039;-49
2021/03/01 10:41:47;;;;;;;2.00;0.75;;;16.20;40.10;;;15.83;26.35;101980.28;4988461;28;20034;-48